Time;durP1;ratioP1;P1;durP2;ratioP2;P2;SDS_P1;SDS_P2;PMS_P1;PMS_P2;Temp;Humidity;BMP_temperature;BMP_pressure;BME280_temperature;BME280_humidity;BME280_pressure;Samples;Min_cycle;Max_cycle;Signal;HPM_P1;HPM_P2
2022/10/01 00:02:16;;;;;;;0.00;0.00;;;10.10;99.90;;;;;;5038809;28;20236;-85
2022/10/01 00:04:44;;;;;;;0.00;0.00;;;10.10;99.90;;;;;;5039679;28;20437;-85
2022/10/01 00:07:14;;;;;;;0.00;0.00;;;10.10;99.90;;;;;;5036930;28;20445;-85
2022/10/01 00:09:42;;;;;;;0.00;0.00;;;10.10;99.90;;;;;;5034845;28;20237;-86
2022/10/01 00:12:14;;;;;;;0.00;0.00;;;10.20;99.90;;;;;;5039615;28;20464;-88
2022/10/01 00:14:43;;;;;;;0.00;0.00;;;10.20;99.90;;;;;;5039671;28;20190;-87
2022/10/01 00:17:11;;;;;;;0.00;0.00;;;10.20;99.90;;;;;;5039645;28;20202;-88
2022/10/01 00:19:39;;;;;;;0.00;0.00;;;10.20;99.90;;;;;;5040331;28;20471;-87
2022/10/01 00:22:07;;;;;;;0.00;0.00;;;10.20;99.90;;;;;;5055054;28;20471;-86
2022/10/01 00:24:36;;;;;;;0.00;0.00;;;10.20;99.90;;;;;;5048347;28;20195;-87
2022/10/01 00:27:04;;;;;;;0.00;0.00;;;10.20;99.90;;;;;;5039612;28;20448;-87
2022/10/01 00:29:33;;;;;;;0.00;0.00;;;10.20;99.90;;;;;;5040104;28;20227;-87
2022/10/01 00:32:01;;;;;;;0.00;0.00;;;10.20;99.90;;;;;;5040563;28;20449;-87
2022/10/01 00:34:29;;;;;;;0.00;0.00;;;10.20;99.90;;;;;;5039539;28;20891;-87
2022/10/01 00:36:57;;;;;;;0.00;0.00;;;10.20;99.90;;;;;;5038975;28;20206;-87
2022/10/01 00:39:25;;;;;;;0.00;0.00;;;10.20;99.90;;;;;;5039004;28;20241;-88
2022/10/01 00:41:53;;;;;;;0.00;0.00;;;10.20;99.90;;;;;;5038910;28;20202;-87
2022/10/01 00:44:34;;;;;;;0.00;0.00;;;10.20;99.90;;;;;;5038911;28;20202;-87
2022/10/01 00:47:07;;;;;;;0.00;0.00;;;10.20;99.90;;;;;;5040414;28;20198;-87
2022/10/01 00:49:38;;;;;;;0.00;0.00;;;10.20;99.90;;;;;;5039072;28;20222;-86
2022/10/01 00:52:10;;;;;;;0.00;0.00;;;10.20;99.90;;;;;;5044399;28;20255;-86
2022/10/01 00:54:41;;;;;;;0.00;0.00;;;10.10;99.90;;;;;;5060043;28;20197;-86
2022/10/01 00:57:11;;;;;;;0.00;0.00;;;10.10;99.90;;;;;;5060707;28;20254;-86
2022/10/01 00:59:40;;;;;;;0.00;0.00;;;10.10;99.90;;;;;;5061412;28;20343;-87
2022/10/01 01:02:09;;;;;;;0.00;0.00;;;10.00;99.90;;;;;;5062398;28;20436;-85
2022/10/01 01:04:38;;;;;;;0.00;0.00;;;10.00;99.90;;;;;;5062658;28;20262;-84
2022/10/01 01:07:07;;;;;;;0.00;0.00;;;9.90;99.90;;;;;;5061054;28;20707;-85
2022/10/01 01:09:37;;;;;;;0.00;0.00;;;9.90;99.90;;;;;;5061336;28;20909;-85
2022/10/01 01:12:18;;;;;;;0.00;0.00;;;9.80;99.90;;;;;;5059867;28;20189;-85
2022/10/01 01:14:56;;;;;;;0.00;0.00;;;9.80;99.90;;;;;;5059185;28;20190;-85
2022/10/01 01:17:30;;;;;;;0.00;0.00;;;9.80;99.90;;;;;;5059411;28;20192;-85
2022/10/01 01:20:26;;;;;;;0.00;0.00;;;9.70;99.90;;;;;;5058095;28;20500;-85
2022/10/01 01:23:05;;;;;;;0.00;0.00;;;9.70;99.90;;;;;;5058625;28;20198;-85
2022/10/01 01:25:42;;;;;;;0.00;0.00;;;9.80;99.90;;;;;;5060809;28;20621;-86
2022/10/01 01:28:19;;;;;;;0.00;0.00;;;9.80;99.90;;;;;;5074942;28;20205;-85
2022/10/01 01:30:49;;;;;;;0.00;0.00;;;9.80;99.90;;;;;;5059241;28;20225;-86
2022/10/01 01:33:20;;;;;;;0.00;0.00;;;9.90;99.90;;;;;;5058199;28;20475;-85
2022/10/01 01:35:52;;;;;;;0.00;0.00;;;9.90;99.90;;;;;;5058690;28;20429;-85
2022/10/01 01:38:26;;;;;;;0.00;0.00;;;10.00;99.90;;;;;;5058174;28;20247;-85
2022/10/01 01:40:58;;;;;;;0.00;0.00;;;10.00;99.90;;;;;;5056607;28;20308;-86
2022/10/01 01:43:31;;;;;;;0.00;0.00;;;10.10;99.90;;;;;;5058414;28;20467;-86
2022/10/01 01:46:02;;;;;;;0.00;0.00;;;10.20;99.90;;;;;;5057870;28;20204;-86
2022/10/01 01:48:33;;;;;;;0.00;0.00;;;10.20;99.90;;;;;;5059440;28;20456;-86
2022/10/01 01:51:08;;;;;;;0.00;0.00;;;10.20;99.90;;;;;;5058904;28;20226;-85
2022/10/01 01:53:36;;;;;;;0.00;0.00;;;10.30;99.90;;;;;;5059094;28;20467;-84
2022/10/01 01:56:05;;;;;;;0.00;0.00;;;10.40;99.90;;;;;;5058625;28;20271;-85
2022/10/01 01:58:34;;;;;;;0.00;0.00;;;10.40;99.90;;;;;;5059349;28;20444;-85
2022/10/01 02:01:03;;;;;;;0.00;0.00;;;10.50;99.90;;;;;;5059200;28;20228;-85
2022/10/01 02:03:34;;;;;;;0.00;0.00;;;10.50;99.90;;;;;;5059163;28;20478;-86
2022/10/01 02:06:12;;;;;;;0.00;0.00;;;10.60;99.90;;;;;;5059006;28;20463;-85
2022/10/01 02:08:48;;;;;;;0.00;0.00;;;10.70;99.90;;;;;;5059066;28;20455;-86
2022/10/01 02:11:28;;;;;;;0.00;0.00;;;10.70;99.90;;;;;;5058793;28;20221;-86
2022/10/01 02:14:06;;;;;;;0.00;0.00;;;10.70;99.90;;;;;;5059422;28;20424;-86
2022/10/01 02:19:18;;;;;;;0.00;0.00;;;10.80;99.90;;;;;;5558140;22;20536;-84
2022/10/01 02:21:54;;;;;;;0.00;0.00;;;10.80;99.90;;;;;;5060046;28;20447;-86
2022/10/01 02:24:31;;;;;;;0.00;0.00;;;10.90;99.90;;;;;;5060631;28;20432;-86
2022/10/01 02:27:03;;;;;;;0.00;0.00;;;10.90;99.90;;;;;;5061145;28;20861;-86
2022/10/01 02:29:34;;;;;;;0.00;0.00;;;10.90;99.90;;;;;;5061230;28;20552;-87
2022/10/01 02:32:02;;;;;;;0.00;0.00;;;10.90;99.90;;;;;;5060592;28;20440;-85
2022/10/01 02:34:31;;;;;;;0.00;0.00;;;11.00;99.90;;;;;;5060371;28;20448;-85
2022/10/01 02:37:03;;;;;;;0.00;0.00;;;11.00;99.90;;;;;;5060680;28;20479;-85
2022/10/01 02:39:33;;;;;;;0.00;0.00;;;11.10;99.90;;;;;;5060072;28;20934;-84
2022/10/01 02:42:03;;;;;;;0.00;0.00;;;11.10;99.90;;;;;;5059686;28;20456;-85
2022/10/01 02:44:37;;;;;;;0.00;0.00;;;11.10;99.90;;;;;;5059836;28;20764;-85
2022/10/01 02:47:09;;;;;;;0.00;0.00;;;11.20;99.90;;;;;;5060537;28;20475;-84
2022/10/01 02:49:40;;;;;;;0.00;0.00;;;11.20;99.90;;;;;;5059635;28;20456;-85
2022/10/01 02:52:16;;;;;;;0.00;0.00;;;11.20;99.90;;;;;;5060610;28;20448;-86
2022/10/01 02:54:50;;;;;;;0.00;0.00;;;11.20;99.90;;;;;;5061346;28;20478;-83
2022/10/01 02:57:26;;;;;;;0.00;0.00;;;11.20;99.90;;;;;;5069970;28;20424;-86
2022/10/01 02:59:57;;;;;;;0.00;0.00;;;11.20;99.90;;;;;;5057290;28;20460;-85
2022/10/01 03:02:27;;;;;;;0.00;0.00;;;11.20;99.90;;;;;;5058361;28;20798;-86
2022/10/01 03:04:56;;;;;;;0.00;0.00;;;11.30;99.90;;;;;;5057649;28;20440;-84
2022/10/01 03:07:24;;;;;;;0.00;0.00;;;11.30;99.90;;;;;;5058195;28;20456;-85
2022/10/01 03:09:52;;;;;;;0.00;0.00;;;11.30;99.90;;;;;;5058085;28;20563;-85
2022/10/01 03:12:22;;;;;;;0.00;0.00;;;11.30;99.90;;;;;;5055522;28;20460;-85
2022/10/01 03:14:50;;;;;;;0.00;0.00;;;11.30;99.90;;;;;;5056692;28;20518;-83
2022/10/01 03:17:19;;;;;;;0.00;0.00;;;11.40;99.90;;;;;;5055546;28;20455;-85
2022/10/01 03:19:47;;;;;;;0.00;0.00;;;11.40;99.90;;;;;;5055099;28;21039;-85
2022/10/01 03:22:21;;;;;;;0.00;0.00;;;11.40;99.90;;;;;;5055529;28;20455;-85
2022/10/01 03:24:49;;;;;;;0.00;0.00;;;11.40;99.90;;;;;;5056463;28;20452;-86
2022/10/01 03:27:17;;;;;;;0.00;0.00;;;11.50;99.90;;;;;;5057667;28;20436;-85
2022/10/01 03:29:45;;;;;;;0.00;0.00;;;11.40;99.90;;;;;;5057106;28;20459;-85
2022/10/01 03:32:13;;;;;;;0.00;0.00;;;11.50;99.90;;;;;;5057304;28;20498;-85
2022/10/01 03:34:43;;;;;;;0.00;0.00;;;11.50;99.90;;;;;;5057523;28;20833;-83
2022/10/01 03:37:11;;;;;;;0.00;0.00;;;11.50;99.90;;;;;;5057810;28;20852;-85
2022/10/01 03:39:39;;;;;;;0.00;0.00;;;11.50;99.90;;;;;;5057634;28;20232;-85
2022/10/01 03:42:06;;;;;;;0.00;0.00;;;11.60;99.90;;;;;;5057441;28;20440;-85
2022/10/01 03:44:34;;;;;;;0.00;0.00;;;11.60;99.90;;;;;;5057217;28;20518;-85
2022/10/01 03:47:02;;;;;;;0.00;0.00;;;11.70;99.90;;;;;;5060850;28;20440;-85
2022/10/01 03:49:30;;;;;;;0.00;0.00;;;11.70;99.90;;;;;;5060542;28;20468;-85
2022/10/01 03:51:59;;;;;;;0.00;0.00;;;11.70;99.90;;;;;;5061645;28;20490;-89
2022/10/01 03:54:59;;;;;;;0.00;0.00;;;11.70;99.90;;;;;;5064539;28;20539;-89
2022/10/01 03:57:33;;;;;;;0.00;0.00;;;11.60;99.90;;;;;;5061762;28;20424;-89
2022/10/01 04:00:04;;;;;;;0.00;0.00;;;11.60;99.90;;;;;;5068522;28;20467;-89
2022/10/01 04:02:37;;;;;;;0.00;0.00;;;11.60;99.90;;;;;;5056481;28;20532;-90
2022/10/01 04:05:08;;;;;;;0.00;0.00;;;11.60;99.90;;;;;;5041179;28;20483;-90
2022/10/01 04:07:37;;;;;;;0.00;0.00;;;11.60;99.90;;;;;;5056628;28;20440;-89
2022/10/01 04:10:06;;;;;;;0.00;0.00;;;11.70;99.90;;;;;;5061939;28;20487;-89
2022/10/01 04:12:34;;;;;;;0.00;0.00;;;11.60;99.90;;;;;;5061388;28;20468;-88
2022/10/01 04:15:02;;;;;;;0.00;0.00;;;11.60;99.90;;;;;;5056842;28;20512;-89
2022/10/01 04:17:32;;;;;;;0.00;0.00;;;11.60;99.90;;;;;;5041051;28;20534;-89
2022/10/01 04:20:03;;;;;;;0.00;0.00;;;11.60;99.90;;;;;;5041242;28;20493;-88
2022/10/01 04:22:35;;;;;;;0.00;0.00;;;11.60;99.90;;;;;;5040402;28;20464;-89
2022/10/01 04:25:05;;;;;;;0.00;0.00;;;11.60;99.90;;;;;;5040748;28;20441;-88
2022/10/01 04:27:33;;;;;;;0.00;0.00;;;11.50;99.90;;;;;;5047440;28;20948;-89
2022/10/01 04:30:01;;;;;;;0.00;0.00;;;11.50;99.90;;;;;;5059749;28;20482;-88
2022/10/01 04:32:29;;;;;;;0.00;0.00;;;11.50;99.90;;;;;;5060304;28;20502;-90
2022/10/01 04:34:57;;;;;;;0.00;0.00;;;11.50;99.90;;;;;;5051402;28;21006;-90
2022/10/01 04:37:26;;;;;;;0.00;0.00;;;11.50;99.90;;;;;;5053824;28;20448;-88
2022/10/01 04:39:54;;;;;;;0.00;0.00;;;11.40;99.90;;;;;;5059776;28;20487;-88
2022/10/01 04:42:27;;;;;;;0.00;0.00;;;11.40;99.90;;;;;;5060613;28;20502;-89
2022/10/01 04:44:58;;;;;;;0.00;0.00;;;11.30;99.90;;;;;;5060451;28;20933;-88
2022/10/01 04:47:26;;;;;;;0.00;0.00;;;11.20;99.90;;;;;;5059133;28;20890;-89
2022/10/01 04:49:54;;;;;;;0.00;0.00;;;11.20;99.90;;;;;;5040783;28;20579;-89
2022/10/01 04:52:26;;;;;;;0.00;0.00;;;11.20;99.90;;;;;;5050484;28;20871;-88
2022/10/01 04:54:54;;;;;;;0.00;0.00;;;11.20;99.90;;;;;;5060590;28;20445;-87
2022/10/01 04:57:23;;;;;;;0.00;0.00;;;11.10;99.90;;;;;;5059105;28;20850;-88
2022/10/01 04:59:51;;;;;;;0.00;0.00;;;11.10;99.90;;;;;;5060851;28;20962;-88
2022/10/01 05:02:19;;;;;;;0.00;0.00;;;11.10;99.90;;;;;;5058151;28;20529;-88
2022/10/01 05:04:47;;;;;;;0.00;0.00;;;11.10;99.90;;;;;;5062224;28;20490;-90
2022/10/01 05:07:15;;;;;;;0.00;0.00;;;11.10;99.90;;;;;;5062940;28;20470;-88
2022/10/01 05:09:43;;;;;;;0.00;0.00;;;11.10;99.90;;;;;;5041028;28;20274;-87
2022/10/01 05:12:11;;;;;;;0.00;0.00;;;11.00;99.90;;;;;;5040276;28;20473;-86
2022/10/01 05:14:40;;;;;;;0.00;0.00;;;11.00;99.90;;;;;;5039552;28;20202;-87
2022/10/01 05:17:08;;;;;;;0.00;0.00;;;11.00;99.90;;;;;;5039832;28;20453;-87
2022/10/01 05:19:36;;;;;;;0.00;0.00;;;11.10;99.90;;;;;;5038983;28;20508;-88
2022/10/01 05:22:04;;;;;;;0.00;0.00;;;11.10;99.90;;;;;;5050477;28;20198;-87
2022/10/01 05:24:31;;;;;;;0.00;0.00;;;11.10;99.90;;;;;;5039223;28;20895;-89
2022/10/01 05:26:59;;;;;;;0.00;0.00;;;11.00;99.90;;;;;;5048952;28;20206;-89
2022/10/01 05:29:27;;;;;;;0.00;0.00;;;11.00;99.90;;;;;;5047059;28;20464;-88
2022/10/01 05:31:57;;;;;;;0.00;0.00;;;11.00;99.90;;;;;;5058211;28;20993;-88
2022/10/01 05:34:25;;;;;;;0.00;0.00;;;11.00;99.90;;;;;;5037096;28;20465;-88
2022/10/01 05:36:55;;;;;;;0.00;0.00;;;11.00;99.90;;;;;;5037114;28;20437;-87
2022/10/01 05:39:23;;;;;;;0.00;0.00;;;11.00;99.90;;;;;;5035881;28;20449;-87
2022/10/01 05:41:52;;;;;;;0.00;0.00;;;10.90;99.90;;;;;;5036405;28;20444;-87
2022/10/01 05:44:19;;;;;;;0.00;0.00;;;10.90;99.90;;;;;;5045692;28;20526;-87
2022/10/01 05:46:47;;;;;;;0.00;0.00;;;10.90;99.90;;;;;;5071449;28;20516;-87
2022/10/01 05:49:17;;;;;;;0.00;0.00;;;10.90;99.90;;;;;;5066900;28;20452;-87
2022/10/01 05:51:45;;;;;;;0.00;0.00;;;10.90;99.90;;;;;;5058957;28;20498;-86
2022/10/01 05:54:15;;;;;;;0.00;0.00;;;10.90;99.90;;;;;;5060199;28;20971;-86
2022/10/01 05:56:42;;;;;;;0.00;0.00;;;10.80;99.90;;;;;;5060712;28;20448;-86
2022/10/01 05:59:10;;;;;;;0.00;0.00;;;10.80;99.90;;;;;;5060100;28;20201;-86
2022/10/01 06:01:38;;;;;;;0.00;0.00;;;10.80;99.90;;;;;;5060446;28;20197;-86
2022/10/01 06:04:06;;;;;;;0.00;0.00;;;10.80;99.90;;;;;;5060221;28;20205;-86
2022/10/01 06:06:35;;;;;;;0.00;0.00;;;10.90;99.90;;;;;;5060774;28;20451;-86
2022/10/01 06:09:03;;;;;;;0.00;0.00;;;10.80;99.90;;;;;;5063668;28;20445;-85
2022/10/01 06:11:31;;;;;;;0.00;0.00;;;10.90;99.90;;;;;;5066716;28;20460;-86
2022/10/01 06:13:59;;;;;;;0.00;0.00;;;10.90;99.90;;;;;;5061787;28;20453;-87
2022/10/01 06:16:27;;;;;;;0.00;0.00;;;10.90;99.90;;;;;;5062653;28;20205;-85
2022/10/01 06:18:56;;;;;;;0.00;0.00;;;10.90;99.90;;;;;;5054152;28;20207;-86
2022/10/01 06:21:27;;;;;;;0.00;0.00;;;10.80;99.90;;;;;;5049232;28;20233;-86
2022/10/01 06:23:56;;;;;;;0.00;0.00;;;10.80;99.90;;;;;;5055781;28;20220;-86
2022/10/01 06:26:24;;;;;;;0.00;0.00;;;10.70;99.90;;;;;;5056563;28;20186;-85
2022/10/01 06:28:52;;;;;;;0.00;0.00;;;10.80;99.90;;;;;;5055113;28;20203;-85
2022/10/01 06:31:21;;;;;;;0.00;0.00;;;10.70;99.90;;;;;;5052936;28;20220;-87
2022/10/01 06:33:49;;;;;;;0.00;0.00;;;10.80;99.90;;;;;;5039390;28;20222;-87
2022/10/01 06:36:16;;;;;;;0.00;0.00;;;10.80;99.90;;;;;;5040285;28;20445;-86
2022/10/01 06:38:47;;;;;;;0.00;0.00;;;10.70;99.90;;;;;;5039217;28;20253;-85
2022/10/01 06:41:17;;;;;;;0.00;0.00;;;10.70;99.90;;;;;;5053630;28;20588;-86
2022/10/01 06:43:45;;;;;;;0.00;0.00;;;10.70;99.90;;;;;;5058193;28;20182;-85
2022/10/01 06:46:13;;;;;;;0.00;0.00;;;10.70;99.90;;;;;;5041261;28;20469;-86
2022/10/01 06:48:42;;;;;;;0.00;0.00;;;10.70;99.90;;;;;;5051753;28;20656;-86
2022/10/01 06:51:10;;;;;;;0.00;0.00;;;10.70;99.90;;;;;;5040520;28;20231;-86
2022/10/01 06:53:37;;;;;;;0.00;0.00;;;10.70;99.90;;;;;;5057158;28;20485;-87
2022/10/01 06:56:06;;;;;;;0.00;0.00;;;10.70;99.90;;;;;;5057737;28;20472;-86
2022/10/01 06:58:36;;;;;;;0.00;0.00;;;10.70;99.90;;;;;;5042330;28;20214;-86
2022/10/01 07:01:04;;;;;;;0.00;0.00;;;10.70;99.90;;;;;;5037876;28;20600;-85
2022/10/01 07:03:32;;;;;;;0.00;0.00;;;10.70;99.90;;;;;;5037812;28;20449;-87
2022/10/01 07:06:04;;;;;;;0.00;0.00;;;10.70;99.90;;;;;;5037672;28;20960;-85
2022/10/01 07:08:32;;;;;;;0.00;0.00;;;10.70;99.90;;;;;;5038318;28;20270;-85
2022/10/01 07:11:02;;;;;;;0.00;0.00;;;10.70;99.90;;;;;;5037701;28;20230;-86
2022/10/01 07:13:30;;;;;;;0.00;0.00;;;10.80;99.90;;;;;;5038109;28;20685;-86
2022/10/01 07:15:59;;;;;;;0.00;0.00;;;10.80;99.90;;;;;;5040041;28;20212;-87
2022/10/01 07:18:27;;;;;;;0.00;0.00;;;10.80;99.90;;;;;;5037267;28;20202;-84
2022/10/01 07:20:56;;;;;;;0.00;0.00;;;10.80;99.90;;;;;;5055087;28;20499;-85
2022/10/01 07:23:24;;;;;;;0.00;0.00;;;10.80;99.90;;;;;;5056769;28;20255;-85
2022/10/01 07:25:52;;;;;;;0.00;0.00;;;10.80;99.90;;;;;;5057626;28;20209;-85
2022/10/01 07:28:24;;;;;;;0.00;0.00;;;10.80;99.90;;;;;;5057266;28;20997;-89
2022/10/01 07:31:00;;;;;;;0.00;0.00;;;10.80;99.90;;;;;;5056738;28;20982;-88
2022/10/01 07:33:29;;;;;;;0.00;0.00;;;10.80;99.90;;;;;;5059661;28;20471;-89
2022/10/01 07:36:03;;;;;;;0.00;0.00;;;10.80;99.90;;;;;;5058309;28;20574;-90
2022/10/01 07:38:37;;;;;;;0.00;0.00;;;10.90;99.90;;;;;;5059060;28;20442;-88
2022/10/01 07:41:05;;;;;;;0.00;0.00;;;10.90;99.90;;;;;;5057548;28;20719;-88
2022/10/01 07:43:35;;;;;;;0.00;0.00;;;10.90;99.90;;;;;;5057461;28;20198;-88
2022/10/01 07:46:05;;;;;;;0.00;0.00;;;11.00;99.90;;;;;;5057625;28;20463;-88
2022/10/01 07:48:33;;;;;;;0.00;0.00;;;11.00;99.90;;;;;;5057958;28;20455;-87
2022/10/01 07:51:01;;;;;;;0.00;0.00;;;11.00;99.90;;;;;;5057133;28;20495;-88
2022/10/01 07:53:29;;;;;;;0.00;0.00;;;11.10;99.90;;;;;;5057722;28;20589;-88
2022/10/01 07:56:00;;;;;;;0.00;0.00;;;11.10;99.90;;;;;;5057182;28;20455;-89
2022/10/01 07:58:40;;;;;;;0.00;0.00;;;11.10;99.90;;;;;;5055212;28;20461;-90
2022/10/01 08:01:12;;;;;;;0.00;0.00;;;11.20;99.90;;;;;;5054736;28;20221;-88
2022/10/01 08:03:40;;;;;;;0.00;0.00;;;11.20;99.90;;;;;;5058019;28;20507;-88
2022/10/01 08:06:11;;;;;;;0.00;0.00;;;11.10;99.90;;;;;;5058077;28;20202;-88
2022/10/01 08:08:39;;;;;;;0.00;0.00;;;11.10;99.90;;;;;;5056518;28;20304;-86
2022/10/01 08:11:09;;;;;;;0.00;0.00;;;11.10;99.90;;;;;;5054495;28;20649;-89
2022/10/01 08:13:37;;;;;;;0.00;0.00;;;11.20;99.90;;;;;;5058827;28;20472;-87
2022/10/01 08:16:08;;;;;;;0.00;0.00;;;11.20;99.90;;;;;;5058869;28;20289;-86
2022/10/01 08:18:43;;;;;;;0.00;0.00;;;11.30;99.90;;;;;;5063371;28;20444;-90
2022/10/01 08:21:24;;;;;;;0.00;0.00;;;11.20;99.90;;;;;;5059185;28;20502;-87
2022/10/01 08:23:54;;;;;;;0.00;0.00;;;11.30;99.90;;;;;;5058425;28;20451;-89
2022/10/01 08:26:56;;;;;;;0.00;0.00;;;11.30;99.90;;;;;;5041521;28;20453;-91
2022/10/01 08:29:24;;;;;;;0.00;0.00;;;11.30;99.90;;;;;;5039509;28;20461;-89
2022/10/01 08:31:55;;;;;;;0.00;0.00;;;11.20;99.90;;;;;;5039176;28;20657;-87
2022/10/01 08:34:25;;;;;;;0.00;0.00;;;11.20;99.90;;;;;;5042352;28;20481;-88
2022/10/01 08:36:53;;;;;;;0.00;0.00;;;11.30;99.90;;;;;;5042263;28;20449;-88
2022/10/01 08:39:21;;;;;;;0.00;0.00;;;11.30;99.90;;;;;;5043859;28;20912;-88
2022/10/01 08:41:54;;;;;;;0.00;0.00;;;11.30;99.90;;;;;;5058387;28;20919;-90
2022/10/01 08:44:27;;;;;;;0.00;0.00;;;11.40;99.90;;;;;;5065526;28;20190;-89
2022/10/01 08:46:59;;;;;;;0.00;0.00;;;11.40;99.90;;;;;;5057276;28;20457;-89
2022/10/01 08:49:35;;;;;;;0.00;0.00;;;11.40;99.90;;;;;;5043987;28;20587;-90
2022/10/01 08:52:09;;;;;;;0.00;0.00;;;11.50;99.90;;;;;;5046754;28;20647;-90
2022/10/01 08:54:42;;;;;;;0.00;0.00;;;11.50;99.90;;;;;;5043647;28;20461;-88
2022/10/01 08:57:13;;;;;;;0.00;0.00;;;11.60;99.90;;;;;;5043050;28;20437;-89
2022/10/01 08:59:44;;;;;;;0.00;0.00;;;11.50;99.90;;;;;;5046092;28;20480;-86
2022/10/01 09:02:21;;;;;;;0.00;0.00;;;11.50;99.90;;;;;;5063180;28;20213;-85
2022/10/01 09:04:53;;;;;;;0.00;0.00;;;11.50;99.90;;;;;;5058362;28;20448;-87
2022/10/01 09:07:44;;;;;;;0.00;0.00;;;11.40;99.90;;;;;;5047938;28;20499;-87
2022/10/01 09:10:24;;;;;;;0.00;0.00;;;11.50;99.90;;;;;;5049728;28;20942;-86
2022/10/01 09:13:06;;;;;;;0.00;0.00;;;11.50;99.90;;;;;;5059540;28;20923;-88
2022/10/01 09:15:51;;;;;;;0.00;0.00;;;11.50;99.90;;;;;;5059991;28;20482;-88
2022/10/01 09:18:30;;;;;;;0.00;0.00;;;11.50;99.90;;;;;;5058742;28;20911;-85
2022/10/01 09:20:59;;;;;;;0.00;0.00;;;11.50;99.90;;;;;;5057671;28;20530;-87
2022/10/01 09:23:29;;;;;;;0.00;0.00;;;11.50;99.90;;;;;;5056363;28;20428;-86
2022/10/01 09:25:59;;;;;;;0.00;0.00;;;11.60;99.90;;;;;;5055745;28;20556;-87
2022/10/01 09:28:29;;;;;;;0.00;0.00;;;11.60;99.90;;;;;;5059172;28;20452;-86
2022/10/01 09:31:03;;;;;;;0.00;0.00;;;11.70;99.90;;;;;;5060301;28;20460;-86
2022/10/01 09:33:34;;;;;;;0.00;0.00;;;11.70;99.90;;;;;;5060790;28;20475;-87
2022/10/01 09:36:16;;;;;;;0.00;0.00;;;11.70;99.90;;;;;;5056061;28;21288;-87
2022/10/01 09:38:47;;;;;;;0.00;0.00;;;11.70;99.90;;;;;;5041048;28;21005;-87
2022/10/01 09:41:18;;;;;;;0.00;0.00;;;11.80;99.90;;;;;;5048026;28;20473;-88
2022/10/01 09:43:47;;;;;;;0.00;0.00;;;11.80;99.90;;;;;;5058582;28;20472;-88
2022/10/01 09:46:21;;;;;;;0.00;0.00;;;11.80;99.90;;;;;;5058032;28;20598;-88
2022/10/01 09:48:57;;;;;;;0.00;0.00;;;11.90;99.90;;;;;;5057920;28;21007;-87
2022/10/01 09:51:32;;;;;;;0.00;0.00;;;11.90;99.90;;;;;;5057878;28;20467;-88
2022/10/01 09:54:16;;;;;;;0.00;0.00;;;12.00;99.90;;;;;;5058404;28;20807;-87
2022/10/01 09:56:50;;;;;;;0.00;0.00;;;12.10;99.90;;;;;;5058263;28;20462;-87
2022/10/01 09:59:24;;;;;;;0.00;0.00;;;12.20;99.90;;;;;;5058487;28;20452;-88
2022/10/01 10:02:01;;;;;;;0.00;0.00;;;12.30;99.90;;;;;;5041472;28;20483;-89
2022/10/01 10:04:29;;;;;;;0.00;0.00;;;12.40;99.90;;;;;;5039506;28;20911;-87
2022/10/01 10:07:05;;;;;;;0.00;0.00;;;12.50;99.90;;;;;;5039601;28;20452;-85
2022/10/01 10:09:43;;;;;;;0.00;0.00;;;12.60;99.90;;;;;;5038627;28;20849;-86
2022/10/01 10:12:39;;;;;;;0.00;0.00;;;12.70;99.90;;;;;;5037505;28;20457;-84
2022/10/01 10:15:10;;;;;;;0.00;0.00;;;12.80;99.90;;;;;;4976510;28;20491;-87
2022/10/01 10:17:50;;;;;;;0.00;0.00;;;12.80;99.90;;;;;;4977192;28;20444;-89
2022/10/01 10:20:38;;;;;;;0.00;0.00;;;12.90;99.90;;;;;;4976400;28;20463;-85
2022/10/01 10:23:17;;;;;;;0.00;0.00;;;13.00;99.90;;;;;;4977304;28;20456;-85
2022/10/01 10:28:56;;;;;;;0.00;0.00;;;13.30;99.90;;;;;;4984404;28;20454;-85
2022/10/01 10:31:26;;;;;;;0.00;0.00;;;13.50;99.90;;;;;;4984186;28;20460;-84
2022/10/01 10:33:58;;;;;;;0.00;0.00;;;13.60;99.90;;;;;;4977628;28;20527;-85
2022/10/01 10:36:31;;;;;;;0.00;0.00;;;13.80;99.90;;;;;;4977460;28;20458;-85
2022/10/01 10:39:01;;;;;;;0.00;0.00;;;13.90;99.90;;;;;;5000471;28;20440;-85
2022/10/01 10:41:30;;;;;;;0.00;0.00;;;14.00;99.90;;;;;;5057933;28;20522;-87
2022/10/01 10:44:02;;;;;;;0.00;0.00;;;14.10;99.90;;;;;;5058590;28;20460;-84
2022/10/01 10:46:34;;;;;;;0.00;0.00;;;14.20;99.90;;;;;;5058953;28;20839;-85
2022/10/01 10:49:07;;;;;;;0.00;0.00;;;14.20;99.90;;;;;;5057704;28;20535;-85
2022/10/01 10:51:52;;;;;;;0.00;0.00;;;14.30;99.90;;;;;;5058842;28;20927;-85
2022/10/01 10:54:28;;;;;;;0.00;0.00;;;14.50;99.90;;;;;;5058080;28;20484;-86
2022/10/01 10:57:20;;;;;;;0.00;0.00;;;14.50;99.90;;;;;;5058173;28;20439;-85
2022/10/01 10:59:59;;;;;;;0.00;0.00;;;14.60;99.90;;;;;;5058351;28;20456;-86
2022/10/01 11:02:29;;;;;;;0.00;0.00;;;14.70;99.90;;;;;;5058494;28;20494;-85
2022/10/01 11:05:14;;;;;;;0.00;0.00;;;14.90;99.90;;;;;;5060034;28;20440;-88
2022/10/01 11:07:45;;;;;;;0.00;0.00;;;14.90;99.90;;;;;;5059545;28;20544;-87
2022/10/01 11:10:25;;;;;;;0.00;0.00;;;14.80;99.90;;;;;;5060212;28;20464;-86
2022/10/01 11:13:08;;;;;;;0.00;0.00;;;14.80;99.90;;;;;;5069619;28;20439;-85
2022/10/01 11:15:50;;;;;;;0.00;0.00;;;15.00;99.90;;;;;;5076752;28;20479;-85
2022/10/01 11:31:46;;;;;;;0.00;0.00;;;15.20;99.90;;;;;;5011816;28;20482;-65
2022/10/01 11:34:38;;;;;;;0.00;0.00;;;15.20;99.90;;;;;;5001544;28;20450;-65
2022/10/01 11:37:12;;;;;;;0.00;0.00;;;15.30;99.90;;;;;;5005804;28;20507;-66
2022/10/01 11:39:43;;;;;;;0.00;0.00;;;15.50;99.90;;;;;;5013898;28;20488;-65
2022/10/01 11:42:18;;;;;;;0.00;0.00;;;15.50;99.90;;;;;;5015313;28;20438;-65
2022/10/01 11:44:51;;;;;;;0.00;0.00;;;15.50;99.90;;;;;;5013115;28;20492;-65
2022/10/01 11:47:24;;;;;;;0.00;0.00;;;15.50;99.90;;;;;;5015544;28;20861;-65
2022/10/01 11:49:58;;;;;;;0.00;0.00;;;15.60;99.90;;;;;;5007023;28;20471;-65
2022/10/01 11:52:35;;;;;;;0.00;0.00;;;15.70;99.90;;;;;;5011459;28;20442;-65
2022/10/01 12:01:02;;;;;;;0.00;0.00;;;16.00;99.90;;;;;;4993298;28;20486;-65
2022/10/01 12:03:36;;;;;;;0.00;0.00;;;16.00;99.90;;;;;;4994428;28;20824;-66
2022/10/01 12:06:08;;;;;;;0.00;0.00;;;16.00;99.90;;;;;;4994249;28;20446;-65
2022/10/01 12:08:37;;;;;;;0.00;0.00;;;15.90;99.90;;;;;;4996411;28;20438;-65
2022/10/01 12:11:15;;;;;;;0.00;0.00;;;16.00;99.90;;;;;;4996358;28;20459;-65
2022/10/01 12:13:51;;;;;;;0.00;0.00;;;16.10;99.90;;;;;;4996548;28;20938;-65
2022/10/01 12:16:28;;;;;;;0.00;0.00;;;16.10;99.90;;;;;;4996655;28;20478;-66
2022/10/01 12:19:01;;;;;;;0.00;0.00;;;16.20;99.90;;;;;;5001491;28;20439;-65
2022/10/01 12:21:36;;;;;;;0.00;0.00;;;16.30;99.90;;;;;;4996235;28;20521;-65
2022/10/01 12:24:11;;;;;;;0.00;0.00;;;16.30;99.90;;;;;;4996195;28;20438;-65
2022/10/01 12:26:48;;;;;;;0.00;0.00;;;16.50;99.90;;;;;;4996684;28;20442;-65
2022/10/01 12:29:28;;;;;;;0.00;0.00;;;16.70;99.90;;;;;;4999081;28;20449;-66
2022/10/01 12:32:01;;;;;;;0.00;0.00;;;16.70;99.90;;;;;;5014230;28;20439;-65
2022/10/01 12:34:38;;;;;;;0.00;0.00;;;16.70;99.90;;;;;;5013751;28;20521;-65
2022/10/01 12:37:16;;;;;;;0.00;0.00;;;16.80;99.90;;;;;;5010766;28;20426;-65
2022/10/01 12:39:57;;;;;;;0.00;0.00;;;16.90;99.90;;;;;;5012710;28;20466;-65
2022/10/01 12:42:53;;;;;;;0.00;0.00;;;16.90;99.90;;;;;;5012813;28;20855;-65
2022/10/01 12:45:32;;;;;;;0.00;0.00;;;17.00;99.90;;;;;;4994281;28;20444;-63
2022/10/01 12:48:07;;;;;;;0.00;0.00;;;16.90;99.90;;;;;;5006607;28;20470;-64
2022/10/01 12:50:46;;;;;;;0.00;0.00;;;16.90;99.90;;;;;;5012935;28;20527;-64
2022/10/01 12:53:29;;;;;;;0.00;0.00;;;16.70;99.90;;;;;;5013804;28;20470;-65
2022/10/01 12:56:06;;;;;;;0.00;0.00;;;16.50;99.90;;;;;;5014094;28;20470;-65
2022/10/01 12:58:52;;;;;;;0.00;0.00;;;16.40;99.90;;;;;;5013733;28;20434;-67
2022/10/01 13:01:34;;;;;;;0.00;0.00;;;16.30;99.90;;;;;;5014619;28;20462;-66
2022/10/01 13:04:33;;;;;;;0.00;0.00;;;16.20;99.90;;;;;;5015508;28;20529;-66
2022/10/01 13:07:19;;;;;;;0.00;0.00;;;16.20;99.90;;;;;;5013526;28;20504;-66
2022/10/01 13:09:58;;;;;;;0.00;0.00;;;16.20;99.90;;;;;;5014970;28;20469;-65
2022/10/01 13:12:42;;;;;;;0.00;0.00;;;16.30;99.90;;;;;;5007251;28;20484;-66
2022/10/01 13:15:13;;;;;;;0.00;0.00;;;16.40;99.90;;;;;;5015323;28;20451;-65
2022/10/01 13:17:47;;;;;;;0.00;0.00;;;16.30;99.90;;;;;;4995591;28;20439;-65
2022/10/01 13:20:24;;;;;;;0.00;0.00;;;16.20;99.90;;;;;;5004462;28;20482;-68
2022/10/01 13:22:57;;;;;;;0.00;0.00;;;16.20;99.90;;;;;;5014149;28;20524;-66
2022/10/01 13:25:32;;;;;;;0.00;0.00;;;16.20;99.90;;;;;;5014248;28;20434;-67
2022/10/01 13:28:10;;;;;;;0.00;0.00;;;15.90;99.90;;;;;;5013838;28;20494;-67
2022/10/01 13:30:51;;;;;;;0.00;0.00;;;15.50;99.90;;;;;;5005927;28;21004;-67
2022/10/01 13:33:26;;;;;;;0.00;0.00;;;15.00;99.90;;;;;;5010192;28;20450;-67
2022/10/01 13:35:57;;;;;;;0.00;0.00;;;14.50;99.90;;;;;;5007134;28;20474;-67
2022/10/01 13:38:38;;;;;;;0.00;0.00;;;14.20;99.90;;;;;;5002871;28;20434;-67
2022/10/01 13:41:17;;;;;;;0.00;0.00;;;13.90;99.90;;;;;;5002745;28;20462;-66